Time;durP1;ratioP1;P1;durP2;ratioP2;P2;SDS_P1;SDS_P2;PMS_P1;PMS_P2;Temp;Humidity;BMP_temperature;BMP_pressure;BME280_temperature;BME280_humidity;BME280_pressure;Samples;Min_cycle;Max_cycle;Signal;HPM_P1;HPM_P2
2021/10/02 00:47:00;;;;;;;3.45;2.55;;;8.80;99.90;;;;;;4981121;28;20041;-83
2021/10/02 00:49:26;;;;;;;2.80;2.55;;;8.90;99.90;;;;;;4976892;28;20030;-83
2021/10/02 00:51:52;;;;;;;2.50;2.30;;;8.80;99.90;;;;;;4989172;28;20057;-84
2021/10/02 00:54:17;;;;;;;3.35;2.60;;;8.80;99.90;;;;;;4986777;28;20481;-83
2021/10/02 00:56:43;;;;;;;3.88;3.00;;;8.80;99.90;;;;;;4995305;28;20026;-84
2021/10/02 00:59:09;;;;;;;2.60;2.40;;;8.70;99.90;;;;;;4956608;28;20895;-83
2021/10/02 01:01:55;;;;;;;4.03;2.97;;;8.70;99.90;;;;;;4970831;28;20465;-83
2021/10/02 01:04:31;;;;;;;;;;;8.70;99.90;;;;;;4988030;28;20029;-83
2021/10/02 01:07:12;;;;;;;3.92;2.60;;;8.70;99.90;;;;;;4988429;28;19910;-84
2021/10/02 01:09:40;;;;;;;3.25;2.55;;;8.70;99.90;;;;;;4984300;28;20030;-83
2021/10/02 01:12:18;;;;;;;3.78;2.83;;;8.70;99.90;;;;;;5003187;28;20032;-82
2021/10/02 01:14:50;;;;;;;4.85;2.53;;;8.70;99.90;;;;;;5011263;28;20028;-83
2021/10/02 01:17:22;;;;;;;2.50;2.30;;;8.70;99.90;;;;;;5011827;28;20455;-83
2021/10/02 01:19:58;;;;;;;3.50;3.00;;;8.70;99.90;;;;;;4992190;28;20058;-85
2021/10/02 01:22:45;;;;;;;3.47;2.90;;;8.60;99.90;;;;;;5006918;28;20030;-83
2021/10/02 01:25:26;;;;;;;6.28;3.33;;;8.70;99.90;;;;;;4993389;28;20062;-85
2021/10/02 01:28:16;;;;;;;4.45;3.05;;;8.60;99.90;;;;;;5009846;23;20037;-77
2021/10/02 01:33:45;;;;;;;4.07;2.80;;;8.60;99.90;;;;;;5030101;28;20061;-77
2021/10/02 01:47:52;;;;;;;4.38;3.00;;;8.50;99.90;;;;;;5023507;28;20029;-77
2021/10/02 01:50:33;;;;;;;3.55;3.08;;;8.60;99.90;;;;;;5030370;28;20377;-77
2021/10/02 01:53:01;;;;;;;2.95;2.65;;;8.60;99.90;;;;;;5006188;28;20431;-77
2021/10/02 01:55:29;;;;;;;3.03;2.58;;;8.60;99.90;;;;;;5014038;28;20052;-77
2021/10/02 01:58:03;;;;;;;3.92;3.15;;;8.60;99.90;;;;;;5029799;28;20039;-77
2021/10/02 02:00:30;;;;;;;3.00;2.40;;;8.60;99.90;;;;;;5012640;28;20040;-77
2021/10/02 02:03:01;;;;;;;2.50;2.28;;;8.60;99.90;;;;;;5027085;28;20555;-76
2021/10/02 02:05:29;;;;;;;2.13;1.90;;;8.60;99.90;;;;;;5022318;28;20479;-78
2021/10/02 02:08:00;;;;;;;3.28;2.13;;;8.60;99.90;;;;;;5030392;28;20044;-78
2021/10/02 02:10:27;;;;;;;2.65;2.30;;;8.60;99.90;;;;;;5025690;28;20025;-77
2021/10/02 02:12:56;;;;;;;2.58;1.95;;;8.60;99.90;;;;;;5030345;28;20030;-79
2021/10/02 02:15:22;;;;;;;3.83;2.20;;;8.50;99.90;;;;;;5029981;28;20041;-77
2021/10/02 02:17:52;;;;;;;2.70;2.42;;;8.50;99.90;;;;;;5030795;28;20025;-78
2021/10/02 02:20:28;;;;;;;3.13;2.10;;;8.50;99.90;;;;;;5027264;28;20032;-77
2021/10/02 02:22:54;;;;;;;3.95;2.10;;;8.50;99.90;;;;;;5031106;28;20113;-77
2021/10/02 02:25:19;;;;;;;3.33;2.50;;;8.50;99.90;;;;;;5029729;28;20124;-77
2021/10/02 02:27:46;;;;;;;3.13;2.83;;;8.50;99.90;;;;;;5012066;28;20037;-78
2021/10/02 02:30:12;;;;;;;3.60;2.55;;;8.50;99.90;;;;;;5029360;28;20033;-77
2021/10/02 02:32:40;;;;;;;3.55;3.00;;;8.50;99.90;;;;;;5030538;28;20094;-77
2021/10/02 02:35:06;;;;;;;2.70;2.50;;;8.40;99.90;;;;;;5013184;28;20029;-77
2021/10/02 02:37:32;;;;;;;3.97;2.97;;;8.40;99.90;;;;;;5029603;28;20037;-77
2021/10/02 02:39:58;;;;;;;3.45;3.15;;;8.50;99.90;;;;;;5039086;28;20044;-77
2021/10/02 02:42:24;;;;;;;4.90;2.70;;;8.40;99.90;;;;;;5006556;28;20124;-78
2021/10/02 02:44:52;;;;;;;3.85;2.72;;;8.40;99.90;;;;;;5016246;28;20053;-78
2021/10/02 02:47:23;;;;;;;2.80;2.60;;;8.40;99.90;;;;;;5027420;28;20528;-76
2021/10/02 02:50:24;;;;;;;3.40;2.72;;;8.50;99.90;;;;;;5029829;28;20488;-75
2021/10/02 02:53:01;;;;;;;3.28;2.95;;;8.50;99.90;;;;;;5026655;28;20040;-77
2021/10/02 02:55:32;;;;;;;3.95;3.10;;;8.50;99.90;;;;;;5028768;28;20120;-77
2021/10/02 02:58:03;;;;;;;3.05;2.75;;;8.50;99.90;;;;;;5025794;28;20040;-78
2021/10/02 03:00:30;;;;;;;4.13;3.30;;;8.50;99.90;;;;;;5044122;28;20041;-77
2021/10/02 03:03:05;;;;;;;3.28;2.75;;;8.50;99.90;;;;;;5030450;28;20031;-77
2021/10/02 03:05:31;;;;;;;3.15;2.78;;;8.50;99.90;;;;;;4988629;28;20038;-77
2021/10/02 03:08:04;;;;;;;4.65;2.97;;;8.60;99.90;;;;;;5029083;28;20509;-77
2021/10/02 03:10:31;;;;;;;3.67;3.03;;;8.60;99.90;;;;;;5024711;28;20038;-76
2021/10/02 03:13:02;;;;;;;6.47;3.20;;;8.60;99.90;;;;;;5030369;28;20040;-78
2021/10/02 03:15:29;;;;;;;2.83;2.63;;;8.60;99.90;;;;;;5028842;28;20033;-77
2021/10/02 03:17:57;;;;;;;3.33;3.03;;;8.60;99.90;;;;;;5028076;28;20132;-78
2021/10/02 03:20:24;;;;;;;3.65;3.20;;;8.60;99.90;;;;;;5045216;28;20493;-78
2021/10/02 03:22:53;;;;;;;4.20;3.17;;;8.60;99.90;;;;;;5029989;28;20043;-78
2021/10/02 03:25:25;;;;;;;6.65;3.53;;;8.60;99.90;;;;;;5012819;28;20600;-76
2021/10/02 03:27:56;;;;;;;4.63;3.03;;;8.50;99.90;;;;;;5023569;28;20063;-78
2021/10/02 03:30:23;;;;;;;4.82;3.30;;;8.50;99.90;;;;;;5029427;28;20479;-76
2021/10/02 03:32:50;;;;;;;4.28;3.20;;;8.50;99.90;;;;;;5025057;28;20033;-79
2021/10/02 03:35:20;;;;;;;4.32;3.78;;;8.50;99.90;;;;;;5031827;28;20045;-77
2021/10/02 03:37:47;;;;;;;4.13;3.53;;;8.50;99.90;;;;;;5031114;28;20033;-76
2021/10/02 03:40:13;;;;;;;4.68;3.00;;;8.50;99.90;;;;;;5028208;28;20117;-77
2021/10/02 03:42:51;;;;;;;3.47;2.88;;;8.50;99.90;;;;;;5033748;28;20116;-77
2021/10/02 03:45:18;;;;;;;5.63;3.08;;;8.50;99.90;;;;;;5031545;28;20426;-77
2021/10/02 03:47:44;;;;;;;5.70;3.25;;;8.50;99.90;;;;;;5014666;28;20456;-77
2021/10/02 03:50:11;;;;;;;5.70;3.17;;;8.40;99.90;;;;;;5015887;28;20391;-78
2021/10/02 03:52:37;;;;;;;4.78;3.15;;;8.50;99.90;;;;;;5032316;28;20030;-77
2021/10/02 03:55:05;;;;;;;4.43;3.63;;;8.50;99.90;;;;;;5033797;28;20060;-77
2021/10/02 03:57:31;;;;;;;2.92;2.65;;;8.50;99.90;;;;;;5032575;28;20430;-77
2021/10/02 03:59:56;;;;;;;4.03;3.00;;;8.50;99.90;;;;;;5031767;28;20090;-78
2021/10/02 04:02:23;;;;;;;2.95;2.65;;;8.50;99.90;;;;;;5029443;28;20068;-78
2021/10/02 04:04:49;;;;;;;5.10;3.30;;;8.50;99.90;;;;;;5033710;28;20495;-77
2021/10/02 04:07:15;;;;;;;4.10;3.05;;;8.50;99.90;;;;;;5031329;28;20559;-76
2021/10/02 04:09:40;;;;;;;4.57;3.00;;;8.60;99.90;;;;;;5044723;28;20116;-77
2021/10/02 04:12:07;;;;;;;3.88;3.47;;;8.60;99.90;;;;;;5032503;28;20029;-78
2021/10/02 04:14:33;;;;;;;3.45;3.15;;;8.60;99.90;;;;;;5033085;28;20037;-78
2021/10/02 04:16:59;;;;;;;3.50;3.20;;;8.60;99.90;;;;;;5012748;28;20389;-78
2021/10/02 04:19:25;;;;;;;4.30;3.72;;;8.70;99.90;;;;;;5036683;28;20033;-78
2021/10/02 04:21:51;;;;;;;4.13;3.63;;;8.70;99.90;;;;;;5026391;28;20120;-77
2021/10/02 04:24:17;;;;;;;3.63;3.10;;;8.70;99.90;;;;;;5032048;28;20108;-78
2021/10/02 04:26:43;;;;;;;3.55;3.00;;;8.70;99.90;;;;;;5032837;28;20033;-78
2021/10/02 04:29:09;;;;;;;3.58;3.28;;;8.70;99.90;;;;;;5029297;28;20065;-77
2021/10/02 04:31:35;;;;;;;3.10;2.80;;;8.70;99.90;;;;;;5032721;28;20069;-77
2021/10/02 04:34:00;;;;;;;3.45;2.85;;;8.80;99.90;;;;;;5032906;28;20091;-78
2021/10/02 04:36:26;;;;;;;6.82;3.17;;;8.70;99.90;;;;;;5029477;28;20030;-79
2021/10/02 04:38:53;;;;;;;4.00;2.92;;;8.70;99.90;;;;;;5029830;28;20034;-77
2021/10/02 04:41:20;;;;;;;3.45;3.00;;;8.70;99.90;;;;;;5031613;28;20047;-78
2021/10/02 04:43:47;;;;;;;3.83;3.13;;;8.70;99.90;;;;;;5032977;28;20029;-77
2021/10/02 04:46:15;;;;;;;3.95;2.78;;;8.70;99.90;;;;;;5032689;28;20025;-77
2021/10/02 04:48:41;;;;;;;4.47;3.30;;;8.80;99.90;;;;;;5031402;28;20550;-77
2021/10/02 04:51:08;;;;;;;3.50;3.20;;;8.80;99.90;;;;;;5030659;28;20037;-77
2021/10/02 04:53:35;;;;;;;3.65;3.13;;;8.80;99.90;;;;;;5032765;28;20029;-76
2021/10/02 04:56:05;;;;;;;3.42;2.90;;;8.70;99.90;;;;;;5032143;28;20034;-77
2021/10/02 04:58:31;;;;;;;4.25;3.30;;;8.70;99.90;;;;;;5012201;28;20506;-77
2021/10/02 05:00:56;;;;;;;4.60;3.33;;;8.70;99.90;;;;;;5031830;28;20056;-77
2021/10/02 05:03:22;;;;;;;4.50;2.72;;;8.80;99.90;;;;;;5047902;28;20052;-78
2021/10/02 05:05:48;;;;;;;4.13;3.15;;;8.80;99.90;;;;;;5032369;28;20032;-78
2021/10/02 05:08:14;;;;;;;4.10;3.08;;;8.70;99.90;;;;;;5029906;28;20037;-78
2021/10/02 05:10:40;;;;;;;4.53;3.45;;;8.80;99.90;;;;;;5029502;28;20116;-77
2021/10/02 05:13:06;;;;;;;3.30;3.00;;;8.80;99.90;;;;;;5026260;28;20030;-78
2021/10/02 05:15:32;;;;;;;3.50;3.20;;;8.80;99.90;;;;;;5030872;28;20365;-78
2021/10/02 05:17:58;;;;;;;4.10;3.40;;;8.80;99.90;;;;;;5029732;28;20569;-78
2021/10/02 05:20:24;;;;;;;3.38;3.08;;;8.80;99.90;;;;;;5027475;28;20053;-77
2021/10/02 05:22:50;;;;;;;4.88;3.35;;;8.80;99.90;;;;;;5030585;28;20025;-78
2021/10/02 05:25:15;;;;;;;6.65;3.70;;;8.80;99.90;;;;;;5030960;28;20037;-77
2021/10/02 05:27:41;;;;;;;5.80;3.55;;;8.80;99.90;;;;;;5028591;28;20037;-77
2021/10/02 05:30:07;;;;;;;4.65;4.20;;;8.90;99.90;;;;;;5028788;28;20029;-77
2021/10/02 05:32:33;;;;;;;5.00;4.03;;;8.90;99.90;;;;;;5031552;28;20129;-78
2021/10/02 05:34:58;;;;;;;5.07;3.58;;;8.90;99.90;;;;;;5047467;28;20132;-78
2021/10/02 05:37:24;;;;;;;6.30;3.83;;;8.90;99.90;;;;;;5008150;28;20038;-77
2021/10/02 05:39:51;;;;;;;5.30;3.95;;;8.90;99.90;;;;;;5030935;28;20040;-76
2021/10/02 05:42:16;;;;;;;4.93;3.70;;;8.90;99.90;;;;;;5023110;28;20030;-77
2021/10/02 05:44:42;;;;;;;5.38;3.95;;;9.00;99.90;;;;;;5010987;28;20454;-77
2021/10/02 05:47:08;;;;;;;4.53;3.80;;;9.00;99.90;;;;;;5028788;28;20037;-75
2021/10/02 05:49:34;;;;;;;4.95;3.63;;;9.10;99.90;;;;;;5029773;28;20049;-77
2021/10/02 05:52:00;;;;;;;5.20;4.18;;;9.10;99.90;;;;;;5022236;28;20049;-77
2021/10/02 05:54:25;;;;;;;6.68;4.22;;;9.10;99.90;;;;;;5030774;28;20018;-77
2021/10/02 05:56:51;;;;;;;5.30;4.07;;;9.10;99.90;;;;;;5029968;28;20503;-78
2021/10/02 05:59:17;;;;;;;4.82;4.20;;;9.20;99.90;;;;;;5022925;28;20152;-77
2021/10/02 06:01:43;;;;;;;5.80;4.63;;;9.20;99.90;;;;;;5025081;28;20380;-76
2021/10/02 06:04:09;;;;;;;6.05;4.63;;;9.20;99.90;;;;;;5027814;28;20026;-77
2021/10/02 06:06:34;;;;;;;6.55;4.78;;;9.20;99.90;;;;;;5026551;28;20028;-77
2021/10/02 06:09:00;;;;;;;5.72;4.47;;;9.30;99.90;;;;;;5028355;28;20466;-76
2021/10/02 06:11:26;;;;;;;9.25;4.72;;;9.30;99.90;;;;;;5030665;28;20036;-77
2021/10/02 06:13:51;;;;;;;9.82;6.30;;;9.40;99.90;;;;;;5029942;28;20029;-77
2021/10/02 06:16:19;;;;;;;9.75;7.25;;;9.40;99.90;;;;;;5041964;28;20396;-76
2021/10/02 06:18:45;;;;;;;9.50;7.10;;;9.40;99.90;;;;;;5040771;28;20125;-78
2021/10/02 06:21:14;;;;;;;9.45;6.50;;;9.40;99.90;;;;;;5026476;28;20038;-77
2021/10/02 06:23:41;;;;;;;7.30;5.90;;;9.50;99.90;;;;;;5029627;28;20041;-78
2021/10/02 06:26:07;;;;;;;7.90;6.00;;;9.50;99.90;;;;;;5025968;28;20559;-76
2021/10/02 06:28:33;;;;;;;7.03;5.00;;;9.60;99.90;;;;;;5026099;28;20120;-78
2021/10/02 06:30:59;;;;;;;7.88;5.13;;;9.60;99.90;;;;;;5026302;28;20037;-77
2021/10/02 06:33:24;;;;;;;8.52;5.35;;;9.60;99.90;;;;;;5021733;28;20030;-78
2021/10/02 06:35:50;;;;;;;8.40;5.68;;;9.70;99.90;;;;;;5030557;28;20440;-77
2021/10/02 06:38:16;;;;;;;9.23;6.20;;;9.70;99.90;;;;;;5041830;28;20526;-78
2021/10/02 06:40:43;;;;;;;8.45;5.60;;;9.80;99.90;;;;;;5042613;28;20037;-77
2021/10/02 06:43:10;;;;;;;7.75;5.90;;;9.90;99.90;;;;;;5029430;28;20029;-77
2021/10/02 06:45:36;;;;;;;6.60;5.28;;;9.90;99.90;;;;;;5025097;28;20053;-77
2021/10/02 06:48:03;;;;;;;7.93;5.85;;;9.90;99.90;;;;;;5025025;28;20052;-77
2021/10/02 06:50:29;;;;;;;7.53;5.35;;;10.00;99.90;;;;;;5029647;28;20029;-77
2021/10/02 06:52:55;;;;;;;8.77;5.95;;;10.00;99.90;;;;;;5028955;28;20079;-78
2021/10/02 06:55:22;;;;;;;7.68;6.10;;;10.10;99.90;;;;;;5029726;28;20365;-78
2021/10/02 06:57:48;;;;;;;8.82;5.65;;;10.10;99.90;;;;;;5010599;28;20510;-77
2021/10/02 07:00:14;;;;;;;8.73;5.60;;;10.10;99.90;;;;;;5029539;28;20479;-78
2021/10/02 07:02:41;;;;;;;7.18;5.10;;;10.10;99.90;;;;;;5029719;28;20041;-77
2021/10/02 07:05:08;;;;;;;6.82;5.00;;;10.10;99.90;;;;;;5032215;28;20395;-77
2021/10/02 07:07:34;;;;;;;7.30;5.72;;;10.00;99.90;;;;;;5029191;28;20484;-77
2021/10/02 07:10:00;;;;;;;7.00;5.15;;;10.00;99.90;;;;;;5027655;28;20030;-78
2021/10/02 07:12:25;;;;;;;6.43;5.32;;;10.00;99.90;;;;;;5029159;28;20034;-77
2021/10/02 07:14:51;;;;;;;7.07;5.57;;;10.00;99.90;;;;;;5021553;28;20542;-76
2021/10/02 07:17:17;;;;;;;6.97;5.22;;;10.00;99.90;;;;;;5027125;28;20030;-76
2021/10/02 07:19:42;;;;;;;6.78;5.47;;;10.20;99.90;;;;;;5029268;28;20603;-77
2021/10/02 07:22:08;;;;;;;7.68;5.63;;;10.60;99.90;;;;;;5029084;28;20025;-77
2021/10/02 07:24:34;;;;;;;7.03;5.72;;;10.90;99.90;;;;;;5009139;28;20036;-77
2021/10/02 07:27:00;;;;;;;8.05;5.35;;;11.20;99.90;;;;;;5013954;28;20034;-78
2021/10/02 07:29:25;;;;;;;7.85;6.15;;;11.50;99.90;;;;;;5025093;28;20399;-77
2021/10/02 07:31:51;;;;;;;8.50;5.60;;;11.70;99.90;;;;;;5014638;28;20026;-76
2021/10/02 07:34:17;;;;;;;6.65;5.32;;;11.90;99.90;;;;;;5034389;28;20038;-77
2021/10/02 07:36:43;;;;;;;7.85;5.82;;;12.10;99.90;;;;;;5026882;28;20053;-76
2021/10/02 07:39:09;;;;;;;9.52;5.53;;;12.20;99.90;;;;;;5023211;28;20055;-76
2021/10/02 07:41:47;;;;;;;5.05;4.32;;;12.40;99.90;;;;;;5020035;28;20483;-78
2021/10/02 07:44:13;;;;;;;6.65;4.57;;;12.40;99.90;;;;;;5027478;28;20040;-77
2021/10/02 07:46:50;;;;;;;7.03;4.97;;;12.40;99.90;;;;;;5028613;28;20147;-76
2021/10/02 07:49:17;;;;;;;7.57;5.07;;;12.50;99.90;;;;;;5027754;28;20040;-78
2021/10/02 07:51:44;;;;;;;5.07;4.20;;;12.50;99.90;;;;;;5024011;28;20042;-77
2021/10/02 07:54:10;;;;;;;6.97;4.97;;;12.50;99.90;;;;;;5023481;28;20030;-77
2021/10/02 07:56:37;;;;;;;8.48;4.93;;;12.60;99.90;;;;;;5022732;28;20120;-76
2021/10/02 07:59:06;;;;;;;7.63;5.20;;;12.60;99.90;;;;;;5020494;28;20499;-76
2021/10/02 08:01:34;;;;;;;5.57;4.80;;;12.70;99.90;;;;;;5025780;28;20030;-76
2021/10/02 08:04:04;;;;;;;6.55;4.43;;;12.70;99.90;;;;;;5037968;28;20407;-78
2021/10/02 08:06:31;;;;;;;5.93;4.53;;;12.80;99.90;;;;;;5025560;28;20034;-76
2021/10/02 08:08:57;;;;;;;5.00;4.50;;;12.90;99.90;;;;;;5025767;28;20172;-78
2021/10/02 08:11:23;;;;;;;7.95;4.78;;;13.10;99.90;;;;;;5013090;28;20057;-76
2021/10/02 08:13:49;;;;;;;6.07;4.28;;;13.30;99.90;;;;;;5027682;28;20099;-77
2021/10/02 08:16:16;;;;;;;6.22;4.47;;;13.40;99.90;;;;;;5020253;28;20037;-77
2021/10/02 08:18:44;;;;;;;5.75;4.63;;;13.50;99.90;;;;;;5027251;28;20037;-78
2021/10/02 08:21:11;;;;;;;5.82;4.45;;;13.40;99.90;;;;;;5034110;28;20151;-76
2021/10/02 08:23:37;;;;;;;5.47;4.25;;;13.40;99.90;;;;;;5027395;28;20044;-78
2021/10/02 08:26:05;;;;;;;6.47;4.50;;;13.30;99.90;;;;;;5030622;28;20054;-77
2021/10/02 08:28:33;;;;;;;7.10;4.78;;;13.40;99.90;;;;;;5028335;28;20029;-77
2021/10/02 08:31:03;;;;;;;6.97;4.28;;;13.40;99.90;;;;;;5027873;28;20087;-77
2021/10/02 08:33:29;;;;;;;7.72;4.20;;;13.40;99.90;;;;;;5014733;28;20041;-76
2021/10/02 08:35:55;;;;;;;6.43;4.28;;;13.50;99.90;;;;;;5029466;28;20029;-76
2021/10/02 08:38:20;;;;;;;4.68;3.92;;;13.60;99.90;;;;;;5030126;28;20368;-76
2021/10/02 08:40:47;;;;;;;4.97;4.00;;;13.70;99.90;;;;;;5028417;28;20856;-77
2021/10/02 08:43:15;;;;;;;4.50;3.78;;;13.80;99.90;;;;;;5040146;28;20033;-77
2021/10/02 08:45:41;;;;;;;5.45;4.53;;;13.80;99.90;;;;;;5030136;28;20100;-77
2021/10/02 08:48:13;;;;;;;5.13;4.22;;;13.70;99.90;;;;;;5031016;28;20386;-76
2021/10/02 08:50:41;;;;;;;5.47;4.05;;;13.70;99.90;;;;;;5013872;28;20132;-77
2021/10/02 08:53:08;;;;;;;5.75;4.20;;;13.70;99.90;;;;;;5026339;28;20116;-77
2021/10/02 08:55:35;;;;;;;5.28;4.13;;;13.80;99.90;;;;;;5026833;28;20037;-78
2021/10/02 08:58:01;;;;;;;5.32;3.95;;;14.00;99.90;;;;;;5010409;28;20034;-78
2021/10/02 09:00:27;;;;;;;4.03;3.47;;;14.10;99.90;;;;;;5019067;28;20068;-78
2021/10/02 09:02:53;;;;;;;4.57;3.33;;;14.30;99.90;;;;;;5023449;28;20053;-77
2021/10/02 09:05:21;;;;;;;3.92;3.20;;;14.40;99.90;;;;;;5024328;28;20076;-78
2021/10/02 09:07:52;;;;;;;3.50;2.83;;;14.50;99.90;;;;;;5021480;28;20036;-78
2021/10/02 09:10:18;;;;;;;4.93;3.58;;;14.60;99.90;;;;;;5018067;28;20092;-78
2021/10/02 09:12:45;;;;;;;5.68;3.50;;;14.70;99.90;;;;;;5015299;28;20034;-77
2021/10/02 09:15:12;;;;;;;6.35;4.00;;;14.70;99.90;;;;;;5017094;28;20034;-79
2021/10/02 09:17:38;;;;;;;4.68;3.38;;;14.90;99.90;;;;;;5020534;28;20403;-79
2021/10/02 09:20:05;;;;;;;4.68;3.17;;;15.00;99.90;;;;;;5024994;28;20029;-78
2021/10/02 09:22:31;;;;;;;4.10;3.40;;;15.00;99.90;;;;;;5019916;28;20537;-78
2021/10/02 09:24:59;;;;;;;5.13;2.90;;;15.20;99.90;;;;;;5005023;28;20104;-79
2021/10/02 09:27:30;;;;;;;9.70;2.93;;;15.20;99.90;;;;;;4981111;28;1083274;-78
2021/10/02 09:29:58;;;;;;;3.17;2.40;;;15.30;99.90;;;;;;5019408;28;20076;-77
2021/10/02 09:32:29;;;;;;;5.75;2.90;;;15.40;99.90;;;;;;5021665;28;20033;-78
2021/10/02 09:35:16;;;;;;;4.63;3.20;;;15.40;99.90;;;;;;5022574;28;20030;-80
2021/10/02 09:37:44;;;;;;;5.40;2.70;;;15.50;99.90;;;;;;5021018;28;20079;-78
2021/10/02 09:40:10;;;;;;;2.25;1.67;;;15.50;99.90;;;;;;5019209;28;20563;-79
2021/10/02 09:42:43;;;;;;;2.28;1.58;;;15.50;99.90;;;;;;5016727;28;20109;-78
2021/10/02 09:45:15;;;;;;;3.25;1.35;;;15.50;99.90;;;;;;5023439;28;20648;-78
2021/10/02 09:47:42;;;;;;;4.22;1.50;;;15.60;99.90;;;;;;5026162;28;20026;-78
2021/10/02 09:50:14;;;;;;;2.38;1.45;;;15.70;99.90;;;;;;5026560;28;20025;-80
2021/10/02 09:52:45;;;;;;;1.75;1.50;;;15.70;99.90;;;;;;5024403;28;20043;-79
2021/10/02 09:55:24;;;;;;;4.38;2.08;;;15.80;99.90;;;;;;5023865;28;20029;-77
2021/10/02 09:57:56;;;;;;;2.50;1.55;;;15.80;99.90;;;;;;5017581;28;20050;-77
2021/10/02 10:00:26;;;;;;;4.03;1.40;;;15.90;99.90;;;;;;5023312;28;20131;-79
2021/10/02 10:02:53;;;;;;;2.40;1.27;;;16.00;99.90;;;;;;5032544;28;20029;-78
2021/10/02 10:05:19;;;;;;;1.70;1.30;;;16.10;99.90;;;;;;5026392;28;20030;-80
2021/10/02 10:07:53;;;;;;;2.75;1.60;;;16.10;99.90;;;;;;5023194;28;20060;-76
2021/10/02 10:10:19;;;;;;;1.63;1.30;;;16.10;99.90;;;;;;5026313;28;20042;-77
2021/10/02 10:12:46;;;;;;;2.75;1.63;;;16.10;99.90;;;;;;5023290;28;20075;-80
2021/10/02 10:15:31;;;;;;;3.22;1.35;;;16.20;99.90;;;;;;5017794;28;20021;-78
2021/10/02 10:17:58;;;;;;;1.88;1.20;;;16.20;99.90;;;;;;5026831;28;20061;-80
2021/10/02 10:20:40;;;;;;;2.05;1.10;;;16.30;99.90;;;;;;5020926;28;20506;-78
2021/10/02 10:23:07;;;;;;;2.05;1.50;;;16.30;99.90;;;;;;5027041;28;20021;-77
2021/10/02 10:25:34;;;;;;;3.00;1.40;;;16.40;99.90;;;;;;5009226;28;20032;-77
2021/10/02 10:28:05;;;;;;;2.45;1.48;;;16.40;99.90;;;;;;5026237;28;20041;-78
2021/10/02 10:30:36;;;;;;;6.00;1.85;;;16.40;99.90;;;;;;5022630;28;20061;-77
2021/10/02 10:33:10;;;;;;;2.53;1.80;;;16.50;99.90;;;;;;5024676;28;20033;-78
2021/10/02 10:35:42;;;;;;;4.82;1.63;;;16.50;99.90;;;;;;5024969;28;20042;-78
2021/10/02 10:38:11;;;;;;;4.40;1.90;;;16.60;99.90;;;;;;5023806;28;20037;-77
2021/10/02 10:40:38;;;;;;;2.40;1.55;;;16.60;99.90;;;;;;5018885;28;20036;-78
2021/10/02 10:43:04;;;;;;;5.15;1.60;;;16.60;99.90;;;;;;5022458;28;20515;-81
2021/10/02 10:45:30;;;;;;;3.33;2.30;;;16.60;99.90;;;;;;5025166;28;20030;-82
2021/10/02 10:47:56;;;;;;;4.22;1.90;;;16.60;99.90;;;;;;5009975;28;20041;-82
2021/10/02 10:50:26;;;;;;;3.78;1.80;;;16.60;99.90;;;;;;5021199;28;20128;-79
2021/10/02 10:52:52;;;;;;;2.60;2.28;;;16.70;99.90;;;;;;5019877;28;20108;-81
2021/10/02 10:55:21;;;;;;;2.72;1.88;;;16.80;99.90;;;;;;5027495;28;20044;-80
2021/10/02 10:57:50;;;;;;;2.42;2.00;;;16.90;99.90;;;;;;5030326;28;20025;-83
2021/10/02 11:00:37;;;;;;;4.57;2.47;;;17.00;99.90;;;;;;5012990;28;20045;-81
2021/10/02 11:03:04;;;;;;;4.57;1.98;;;17.00;99.90;;;;;;5027209;28;20033;-81
2021/10/02 11:05:36;;;;;;;3.20;2.35;;;17.00;99.90;;;;;;5012369;28;20108;-82
2021/10/02 11:08:02;;;;;;;3.55;2.03;;;17.10;99.90;;;;;;5026696;28;20029;-83
2021/10/02 11:10:57;;;;;;;4.93;2.30;;;17.10;99.90;;;;;;5027879;28;20032;-81
2021/10/02 11:13:31;;;;;;;3.17;2.20;;;17.20;99.90;;;;;;5029445;28;20048;-79
2021/10/02 11:16:17;;;;;;;3.88;2.78;;;17.20;99.90;;;;;;5029915;28;20032;-80
2021/10/02 11:18:46;;;;;;;;;;;17.40;99.90;;;;;;5024449;28;20065;-80
2021/10/02 11:21:14;;;;;;;3.00;1.90;;;17.40;99.90;;;;;;5011290;28;19913;-80
2021/10/02 11:23:40;;;;;;;2.58;1.63;;;17.50;99.90;;;;;;5022482;28;20050;-80
2021/10/02 11:26:23;;;;;;;4.28;2.20;;;17.40;99.90;;;;;;5043751;28;20507;-79
2021/10/02 11:28:59;;;;;;;2.60;1.92;;;17.40;99.90;;;;;;5031930;28;20037;-80
2021/10/02 11:31:26;;;;;;;3.92;2.00;;;17.50;99.90;;;;;;5038312;28;20115;-80
2021/10/02 11:33:54;;;;;;;3.50;2.08;;;17.60;99.90;;;;;;5041246;28;20036;-80
2021/10/02 11:36:31;;;;;;;2.60;1.70;;;17.60;99.90;;;;;;5009354;28;20133;-83
2021/10/02 11:39:12;;;;;;;2.33;1.80;;;17.70;99.90;;;;;;5028833;28;20038;-82
2021/10/02 11:42:12;;;;;;;3.47;2.03;;;17.80;99.90;;;;;;5022886;28;20048;-81
2021/10/02 11:44:48;;;;;;;4.15;2.00;;;17.90;99.90;;;;;;5026034;28;20123;-81
2021/10/02 11:47:33;;;;;;;3.40;1.58;;;17.90;99.90;;;;;;5029865;28;20034;-81
2021/10/02 11:50:11;;;;;;;1.85;1.45;;;18.00;99.90;;;;;;5005743;28;20037;-81
2021/10/02 11:52:57;;;;;;;2.83;1.55;;;18.00;99.90;;;;;;5006251;28;20078;-81
2021/10/02 11:55:42;;;;;;;3.03;1.67;;;18.10;99.90;;;;;;5033294;28;20030;-81
2021/10/02 11:58:08;;;;;;;2.25;1.58;;;18.20;99.90;;;;;;5032599;28;20431;-81
2021/10/02 12:00:43;;;;;;;2.90;1.95;;;18.30;99.90;;;;;;5024109;28;20021;-80
2021/10/02 12:03:11;;;;;;;4.72;1.95;;;18.30;99.90;;;;;;5032283;28;20480;-81
2021/10/02 12:05:37;;;;;;;1.95;1.75;;;18.30;99.90;;;;;;5012477;28;20492;-81
2021/10/02 12:08:06;;;;;;;2.55;1.65;;;18.40;99.90;;;;;;5013357;28;20038;-81
2021/10/02 12:10:32;;;;;;;2.45;1.98;;;18.50;99.90;;;;;;5024468;28;20446;-81
2021/10/02 12:13:20;;;;;;;2.58;1.90;;;18.60;99.90;;;;;;5036799;28;20087;-81
2021/10/02 12:15:46;;;;;;;1.90;1.55;;;18.60;99.90;;;;;;5032242;28;20108;-81
2021/10/02 12:18:12;;;;;;;2.30;1.80;;;18.60;99.90;;;;;;5031824;28;20129;-80
2021/10/02 12:20:39;;;;;;;2.58;1.83;;;18.60;99.90;;;;;;5013333;28;20022;-81
2021/10/02 12:23:07;;;;;;;2.10;1.55;;;18.60;99.90;;;;;;5025161;28;20053;-81
2021/10/02 12:25:33;;;;;;;3.55;1.88;;;18.60;99.90;;;;;;5027211;28;20025;-80
2021/10/02 12:27:58;;;;;;;3.55;1.83;;;18.70;99.90;;;;;;5034269;28;20372;-80
2021/10/02 12:30:24;;;;;;;2.58;1.90;;;18.70;99.90;;;;;;5027816;28;20045;-83
2021/10/02 12:33:03;;;;;;;6.85;3.40;;;18.70;99.90;;;;;;5012686;28;20037;-81
2021/10/02 12:35:30;;;;;;;4.47;1.92;;;18.60;99.90;;;;;;5024541;28;20041;-81
2021/10/02 12:37:56;;;;;;;2.92;1.58;;;18.60;99.90;;;;;;5049216;28;20033;-81
2021/10/02 12:40:27;;;;;;;4.55;2.10;;;18.60;99.90;;;;;;5031740;28;20068;-80
2021/10/02 12:42:56;;;;;;;2.47;2.00;;;18.70;99.90;;;;;;5030591;28;20498;-81
2021/10/02 12:45:25;;;;;;;6.82;2.40;;;18.70;99.90;;;;;;5032758;28;20024;-81
2021/10/02 12:47:58;;;;;;;2.75;1.98;;;18.80;99.90;;;;;;5015201;28;20033;-81
2021/10/02 12:50:33;;;;;;;2.33;1.90;;;18.80;99.90;;;;;;5029670;28;20036;-81
2021/10/02 12:52:59;;;;;;;3.03;2.72;;;18.90;99.90;;;;;;5036122;28;20121;-81
2021/10/02 12:55:25;;;;;;;5.63;1.90;;;18.90;99.90;;;;;;5025575;28;20069;-81
2021/10/02 12:57:51;;;;;;;2.15;1.83;;;19.00;99.90;;;;;;5012416;28;20037;-80
2021/10/02 13:00:19;;;;;;;2.88;1.77;;;18.90;99.90;;;;;;5030409;28;20033;-81
2021/10/02 13:02:58;;;;;;;4.18;2.20;;;18.90;99.90;;;;;;5029122;28;20083;-82
2021/10/02 13:05:27;;;;;;;3.17;1.70;;;18.90;99.90;;;;;;5027466;28;20021;-82
2021/10/02 13:08:01;;;;;;;2.42;1.98;;;18.80;99.90;;;;;;5028022;28;20034;-82
2021/10/02 13:10:26;;;;;;;2.85;1.90;;;18.70;99.90;;;;;;5017788;28;20079;-81
2021/10/02 13:13:14;;;;;;;2.45;1.80;;;18.70;99.90;;;;;;5002562;28;20030;-81
2021/10/02 13:15:51;;;;;;;3.55;1.85;;;18.70;99.90;;;;;;5023582;28;20074;-81
2021/10/02 13:18:28;;;;;;;3.00;2.10;;;18.60;99.90;;;;;;5030528;28;20025;-82
2021/10/02 13:20:57;;;;;;;1.77;1.52;;;18.60;99.90;;;;;;5002553;28;20503;-82
2021/10/02 13:23:52;;;;;;;2.28;1.65;;;18.50;99.90;;;;;;5012490;28;20030;-82
2021/10/02 13:26:21;;;;;;;2.38;1.52;;;18.50;99.90;;;;;;5018425;28;20045;-80
2021/10/02 13:28:48;;;;;;;2.75;2.00;;;18.40;99.90;;;;;;5023193;28;20113;-79
2021/10/02 13:31:16;;;;;;;2.25;1.48;;;18.40;99.90;;;;;;5011470;28;20048;-80
2021/10/02 13:33:44;;;;;;;4.28;1.73;;;18.30;99.90;;;;;;5025853;28;20537;-80
2021/10/02 13:36:31;;;;;;;1.95;1.75;;;18.20;99.90;;;;;;5032295;28;20076;-80
2021/10/02 13:39:14;;;;;;;1.92;1.58;;;18.10;99.90;;;;;;5026263;28;20034;-79
2021/10/02 13:41:46;;;;;;;3.42;2.25;;;18.00;99.90;;;;;;5030565;28;20384;-79
2021/10/02 13:44:13;;;;;;;4.30;1.75;;;17.90;99.90;;;;;;5026528;28;20099;-80
2021/10/02 13:46:43;;;;;;;4.38;1.60;;;17.90;99.90;;;;;;5013668;28;20025;-78
2021/10/02 13:49:12;;;;;;;3.28;1.60;;;17.80;99.90;;;;;;5026503;28;20083;-81
2021/10/02 13:51:39;;;;;;;4.10;1.55;;;17.70;99.90;;;;;;5020302;28;20053;-80
2021/10/02 13:54:05;;;;;;;2.80;2.22;;;17.60;99.90;;;;;;5034669;28;20029;-80
2021/10/02 13:56:40;;;;;;;2.67;1.73;;;17.50;99.90;;;;;;5028942;28;20125;-80
2021/10/02 13:59:06;;;;;;;2.45;1.88;;;17.40;99.90;;;;;;5031237;28;20535;-82
2021/10/02 14:01:33;;;;;;;2.72;2.28;;;17.40;99.90;;;;;;5030057;28;20029;-82
2021/10/02 14:03:59;;;;;;;4.28;2.03;;;17.40;99.90;;;;;;5015009;28;20395;-80